sensor_id;sensor_type;location;lat;lon;timestamp;temperature;humidity
66271;DHT22;53063;39.614;8.814;2022-07-23T00:00:53;26.30;75.80
66271;DHT22;53063;39.614;8.814;2022-07-23T00:03:19;26.20;76.10
66271;DHT22;53063;39.614;8.814;2022-07-23T00:05:45;26.30;76.00
66271;DHT22;53063;39.614;8.814;2022-07-23T00:08:11;26.30;75.80
66271;DHT22;53063;39.614;8.814;2022-07-23T00:10:37;26.30;75.20
66271;DHT22;53063;39.614;8.814;2022-07-23T00:13:03;26.30;75.00
66271;DHT22;53063;39.614;8.814;2022-07-23T00:15:29;26.40;74.70
66271;DHT22;53063;39.614;8.814;2022-07-23T00:17:56;26.40;74.10
66271;DHT22;53063;39.614;8.814;2022-07-23T00:20:21;26.40;73.70
66271;DHT22;53063;39.614;8.814;2022-07-23T00:22:51;26.30;73.60
66271;DHT22;53063;39.614;8.814;2022-07-23T00:25:17;26.40;72.80
66271;DHT22;53063;39.614;8.814;2022-07-23T00:27:43;26.40;71.90
66271;DHT22;53063;39.614;8.814;2022-07-23T00:30:10;26.40;71.80
66271;DHT22;53063;39.614;8.814;2022-07-23T00:32:47;26.40;72.20
66271;DHT22;53063;39.614;8.814;2022-07-23T00:35:14;26.30;72.60
66271;DHT22;53063;39.614;8.814;2022-07-23T00:37:39;26.00;72.80
66271;DHT22;53063;39.614;8.814;2022-07-23T00:40:06;25.80;72.90
66271;DHT22;53063;39.614;8.814;2022-07-23T00:42:32;25.60;72.90
66271;DHT22;53063;39.614;8.814;2022-07-23T00:44:58;25.40;72.40
66271;DHT22;53063;39.614;8.814;2022-07-23T00:47:24;25.20;71.50
66271;DHT22;53063;39.614;8.814;2022-07-23T00:49:50;25.10;70.70
66271;DHT22;53063;39.614;8.814;2022-07-23T00:52:16;25.10;69.50
66271;DHT22;53063;39.614;8.814;2022-07-23T00:54:42;25.10;69.50
66271;DHT22;53063;39.614;8.814;2022-07-23T00:57:09;25.10;69.80
66271;DHT22;53063;39.614;8.814;2022-07-23T00:59:35;25.00;69.40
66271;DHT22;53063;39.614;8.814;2022-07-23T01:02:01;25.00;69.10
66271;DHT22;53063;39.614;8.814;2022-07-23T01:04:27;25.00;68.90
66271;DHT22;53063;39.614;8.814;2022-07-23T01:06:53;25.00;69.40
66271;DHT22;53063;39.614;8.814;2022-07-23T01:09:19;25.00;70.80
66271;DHT22;53063;39.614;8.814;2022-07-23T01:11:45;25.00;72.50
66271;DHT22;53063;39.614;8.814;2022-07-23T01:14:18;25.00;74.00
66271;DHT22;53063;39.614;8.814;2022-07-23T01:16:46;25.00;74.60
66271;DHT22;53063;39.614;8.814;2022-07-23T01:19:14;25.00;74.90
66271;DHT22;53063;39.614;8.814;2022-07-23T01:21:43;24.90;75.00
66271;DHT22;53063;39.614;8.814;2022-07-23T01:24:11;24.80;75.20
66271;DHT22;53063;39.614;8.814;2022-07-23T01:26:45;24.70;74.80
66271;DHT22;53063;39.614;8.814;2022-07-23T01:29:12;24.70;75.10
66271;DHT22;53063;39.614;8.814;2022-07-23T01:31:39;24.60;75.60
66271;DHT22;53063;39.614;8.814;2022-07-23T01:34:05;24.70;76.00
66271;DHT22;53063;39.614;8.814;2022-07-23T01:36:36;24.60;76.60
66271;DHT22;53063;39.614;8.814;2022-07-23T01:39:03;24.60;76.90
66271;DHT22;53063;39.614;8.814;2022-07-23T01:41:30;24.70;77.00
66271;DHT22;53063;39.614;8.814;2022-07-23T01:43:56;24.80;76.40
66271;DHT22;53063;39.614;8.814;2022-07-23T01:46:22;24.90;76.10
66271;DHT22;53063;39.614;8.814;2022-07-23T01:48:49;25.00;75.30
66271;DHT22;53063;39.614;8.814;2022-07-23T01:51:52;25.10;74.70
66271;DHT22;53063;39.614;8.814;2022-07-23T01:54:33;25.00;74.40
66271;DHT22;53063;39.614;8.814;2022-07-23T01:57:00;25.20;74.10
66271;DHT22;53063;39.614;8.814;2022-07-23T01:59:27;25.00;74.00
66271;DHT22;53063;39.614;8.814;2022-07-23T02:01:54;25.00;74.00
66271;DHT22;53063;39.614;8.814;2022-07-23T02:04:21;25.10;73.60
66271;DHT22;53063;39.614;8.814;2022-07-23T02:06:48;25.10;73.30
66271;DHT22;53063;39.614;8.814;2022-07-23T02:09:15;25.00;73.00
66271;DHT22;53063;39.614;8.814;2022-07-23T02:11:41;25.00;72.60
66271;DHT22;53063;39.614;8.814;2022-07-23T02:14:07;25.00;72.30
66271;DHT22;53063;39.614;8.814;2022-07-23T02:16:33;24.90;70.90
66271;DHT22;53063;39.614;8.814;2022-07-23T02:19:02;24.80;70.30
66271;DHT22;53063;39.614;8.814;2022-07-23T02:21:28;24.90;70.20
66271;DHT22;53063;39.614;8.814;2022-07-23T02:23:54;25.00;64.60
66271;DHT22;53063;39.614;8.814;2022-07-23T02:26:20;25.20;62.00
66271;DHT22;53063;39.614;8.814;2022-07-23T02:28:47;25.30;60.80
66271;DHT22;53063;39.614;8.814;2022-07-23T02:31:13;25.30;60.10
66271;DHT22;53063;39.614;8.814;2022-07-23T02:33:39;25.20;60.10
66271;DHT22;53063;39.614;8.814;2022-07-23T02:36:05;25.10;60.30
66271;DHT22;53063;39.614;8.814;2022-07-23T02:38:32;25.00;60.20
66271;DHT22;53063;39.614;8.814;2022-07-23T02:40:58;25.00;60.30
66271;DHT22;53063;39.614;8.814;2022-07-23T02:43:24;25.10;60.40
66271;DHT22;53063;39.614;8.814;2022-07-23T02:45:50;25.10;60.50
66271;DHT22;53063;39.614;8.814;2022-07-23T02:48:16;25.10;60.90
66271;DHT22;53063;39.614;8.814;2022-07-23T02:50:44;25.20;60.90
66271;DHT22;53063;39.614;8.814;2022-07-23T02:53:13;25.10;61.10
66271;DHT22;53063;39.614;8.814;2022-07-23T02:55:40;25.10;61.60
66271;DHT22;53063;39.614;8.814;2022-07-23T02:58:06;25.10;62.00
66271;DHT22;53063;39.614;8.814;2022-07-23T03:00:32;25.10;62.20
66271;DHT22;53063;39.614;8.814;2022-07-23T03:02:58;25.10;61.90
66271;DHT22;53063;39.614;8.814;2022-07-23T03:05:24;25.20;61.60
66271;DHT22;53063;39.614;8.814;2022-07-23T03:07:50;25.20;61.50
66271;DHT22;53063;39.614;8.814;2022-07-23T03:10:16;25.30;61.80
66271;DHT22;53063;39.614;8.814;2022-07-23T03:12:43;25.20;61.40
66271;DHT22;53063;39.614;8.814;2022-07-23T03:15:09;25.20;61.10
66271;DHT22;53063;39.614;8.814;2022-07-23T03:17:35;25.30;61.30
66271;DHT22;53063;39.614;8.814;2022-07-23T03:20:03;25.30;61.50
66271;DHT22;53063;39.614;8.814;2022-07-23T03:22:29;25.30;61.70
66271;DHT22;53063;39.614;8.814;2022-07-23T03:24:55;25.20;60.70
66271;DHT22;53063;39.614;8.814;2022-07-23T03:27:25;25.20;60.20
66271;DHT22;53063;39.614;8.814;2022-07-23T03:29:53;25.30;60.60
66271;DHT22;53063;39.614;8.814;2022-07-23T03:32:19;25.10;61.40
66271;DHT22;53063;39.614;8.814;2022-07-23T03:34:46;24.90;62.40
66271;DHT22;53063;39.614;8.814;2022-07-23T03:37:12;24.60;62.60
66271;DHT22;53063;39.614;8.814;2022-07-23T03:39:38;24.50;63.20
66271;DHT22;53063;39.614;8.814;2022-07-23T03:42:05;24.30;62.90
66271;DHT22;53063;39.614;8.814;2022-07-23T03:44:32;24.20;63.10
66271;DHT22;53063;39.614;8.814;2022-07-23T03:46:58;24.10;63.20
66271;DHT22;53063;39.614;8.814;2022-07-23T03:49:23;23.90;63.50
66271;DHT22;53063;39.614;8.814;2022-07-23T03:51:50;23.70;64.30
66271;DHT22;53063;39.614;8.814;2022-07-23T03:54:16;23.50;65.10
66271;DHT22;53063;39.614;8.814;2022-07-23T03:56:42;23.30;66.00
66271;DHT22;53063;39.614;8.814;2022-07-23T03:59:09;23.30;66.50
66271;DHT22;53063;39.614;8.814;2022-07-23T04:01:35;23.10;67.00
66271;DHT22;53063;39.614;8.814;2022-07-23T04:04:01;23.10;67.40
66271;DHT22;53063;39.614;8.814;2022-07-23T04:06:28;23.00;67.40
66271;DHT22;53063;39.614;8.814;2022-07-23T04:08:55;23.10;67.70
66271;DHT22;53063;39.614;8.814;2022-07-23T04:11:21;23.10;67.60
66271;DHT22;53063;39.614;8.814;2022-07-23T04:13:47;23.20;68.00
66271;DHT22;53063;39.614;8.814;2022-07-23T04:16:13;23.30;67.90
66271;DHT22;53063;39.614;8.814;2022-07-23T04:18:39;23.20;68.00
66271;DHT22;53063;39.614;8.814;2022-07-23T04:21:11;23.10;68.30
66271;DHT22;53063;39.614;8.814;2022-07-23T04:23:38;23.10;68.50
66271;DHT22;53063;39.614;8.814;2022-07-23T04:26:05;23.10;68.70
66271;DHT22;53063;39.614;8.814;2022-07-23T04:28:31;23.10;68.30
66271;DHT22;53063;39.614;8.814;2022-07-23T04:30:58;23.20;68.10
66271;DHT22;53063;39.614;8.814;2022-07-23T04:33:24;23.10;66.60
66271;DHT22;53063;39.614;8.814;2022-07-23T04:35:53;23.20;64.00
66271;DHT22;53063;39.614;8.814;2022-07-23T04:38:20;23.40;63.50
66271;DHT22;53063;39.614;8.814;2022-07-23T04:40:48;23.60;63.40
66271;DHT22;53063;39.614;8.814;2022-07-23T04:43:14;23.70;64.10
66271;DHT22;53063;39.614;8.814;2022-07-23T04:45:45;23.80;64.50
66271;DHT22;53063;39.614;8.814;2022-07-23T04:48:11;23.80;64.80
66271;DHT22;53063;39.614;8.814;2022-07-23T04:50:38;23.70;65.20
66271;DHT22;53063;39.614;8.814;2022-07-23T04:53:04;23.70;65.50
66271;DHT22;53063;39.614;8.814;2022-07-23T04:55:30;23.80;65.50
66271;DHT22;53063;39.614;8.814;2022-07-23T04:57:57;23.90;64.70
66271;DHT22;53063;39.614;8.814;2022-07-23T05:00:23;23.80;63.90
66271;DHT22;53063;39.614;8.814;2022-07-23T05:02:49;23.80;63.40
66271;DHT22;53063;39.614;8.814;2022-07-23T05:05:16;23.80;63.40
66271;DHT22;53063;39.614;8.814;2022-07-23T05:07:44;23.90;63.80
66271;DHT22;53063;39.614;8.814;2022-07-23T05:10:10;23.80;63.90
66271;DHT22;53063;39.614;8.814;2022-07-23T05:12:36;23.80;64.10
66271;DHT22;53063;39.614;8.814;2022-07-23T05:15:02;23.80;63.90
66271;DHT22;53063;39.614;8.814;2022-07-23T05:17:28;24.00;63.80
66271;DHT22;53063;39.614;8.814;2022-07-23T05:19:54;24.20;64.20
66271;DHT22;53063;39.614;8.814;2022-07-23T05:22:20;24.30;63.90
66271;DHT22;53063;39.614;8.814;2022-07-23T05:24:47;24.40;63.50
66271;DHT22;53063;39.614;8.814;2022-07-23T05:27:13;24.50;63.20
66271;DHT22;53063;39.614;8.814;2022-07-23T05:29:39;24.70;62.60
66271;DHT22;53063;39.614;8.814;2022-07-23T05:32:05;24.80;62.30
66271;DHT22;53063;39.614;8.814;2022-07-23T05:34:33;25.00;62.00
66271;DHT22;53063;39.614;8.814;2022-07-23T05:36:59;25.20;61.70
66271;DHT22;53063;39.614;8.814;2022-07-23T05:39:25;25.30;61.20
66271;DHT22;53063;39.614;8.814;2022-07-23T05:41:51;25.50;61.50
66271;DHT22;53063;39.614;8.814;2022-07-23T05:44:17;25.50;61.80
66271;DHT22;53063;39.614;8.814;2022-07-23T05:46:44;25.60;61.10
66271;DHT22;53063;39.614;8.814;2022-07-23T05:49:15;25.70;60.40
66271;DHT22;53063;39.614;8.814;2022-07-23T05:52:04;26.10;59.50
66271;DHT22;53063;39.614;8.814;2022-07-23T05:54:46;26.30;57.70
66271;DHT22;53063;39.614;8.814;2022-07-23T05:57:12;26.70;57.70
66271;DHT22;53063;39.614;8.814;2022-07-23T05:59:38;27.00;57.50
66271;DHT22;53063;39.614;8.814;2022-07-23T06:02:03;27.50;56.20
66271;DHT22;53063;39.614;8.814;2022-07-23T06:04:29;28.10;55.30
66271;DHT22;53063;39.614;8.814;2022-07-23T06:07:15;29.10;52.90
66271;DHT22;53063;39.614;8.814;2022-07-23T06:09:41;30.30;50.30
66271;DHT22;53063;39.614;8.814;2022-07-23T06:12:08;30.40;49.40
66271;DHT22;53063;39.614;8.814;2022-07-23T06:14:34;29.00;52.80
66271;DHT22;53063;39.614;8.814;2022-07-23T06:17:00;28.30;54.80
66271;DHT22;53063;39.614;8.814;2022-07-23T06:19:27;28.20;54.80
66271;DHT22;53063;39.614;8.814;2022-07-23T06:21:53;28.40;54.10
66271;DHT22;53063;39.614;8.814;2022-07-23T06:24:19;28.50;53.20
66271;DHT22;53063;39.614;8.814;2022-07-23T06:26:45;28.60;53.90
66271;DHT22;53063;39.614;8.814;2022-07-23T06:29:11;28.90;53.50
66271;DHT22;53063;39.614;8.814;2022-07-23T06:31:37;28.80;53.40
66271;DHT22;53063;39.614;8.814;2022-07-23T06:34:03;28.60;54.00
66271;DHT22;53063;39.614;8.814;2022-07-23T06:36:29;28.90;52.60
66271;DHT22;53063;39.614;8.814;2022-07-23T06:38:55;29.20;51.70
66271;DHT22;53063;39.614;8.814;2022-07-23T06:41:21;29.20;51.60
66271;DHT22;53063;39.614;8.814;2022-07-23T06:43:48;29.50;50.20
66271;DHT22;53063;39.614;8.814;2022-07-23T06:46:15;29.80;49.40
66271;DHT22;53063;39.614;8.814;2022-07-23T06:48:41;29.90;50.60
66271;DHT22;53063;39.614;8.814;2022-07-23T06:51:07;30.00;49.60
66271;DHT22;53063;39.614;8.814;2022-07-23T06:53:33;29.90;50.20
66271;DHT22;53063;39.614;8.814;2022-07-23T06:56:00;30.10;50.20
66271;DHT22;53063;39.614;8.814;2022-07-23T06:58:26;29.70;48.20
66271;DHT22;53063;39.614;8.814;2022-07-23T07:00:52;30.00;48.80
66271;DHT22;53063;39.614;8.814;2022-07-23T07:03:19;30.40;46.30
66271;DHT22;53063;39.614;8.814;2022-07-23T07:05:45;30.60;46.30
66271;DHT22;53063;39.614;8.814;2022-07-23T07:08:11;30.80;46.60
66271;DHT22;53063;39.614;8.814;2022-07-23T07:10:37;30.80;45.90
66271;DHT22;53063;39.614;8.814;2022-07-23T07:13:03;31.00;46.80
66271;DHT22;53063;39.614;8.814;2022-07-23T07:15:29;30.90;44.40
66271;DHT22;53063;39.614;8.814;2022-07-23T07:17:55;31.00;44.70
66271;DHT22;53063;39.614;8.814;2022-07-23T07:20:21;31.00;44.10
66271;DHT22;53063;39.614;8.814;2022-07-23T07:22:47;31.20;45.80
66271;DHT22;53063;39.614;8.814;2022-07-23T07:25:13;31.50;43.80
66271;DHT22;53063;39.614;8.814;2022-07-23T07:27:38;31.70;44.50
66271;DHT22;53063;39.614;8.814;2022-07-23T07:30:05;31.80;46.50
66271;DHT22;53063;39.614;8.814;2022-07-23T07:32:31;31.90;44.90
66271;DHT22;53063;39.614;8.814;2022-07-23T07:35:06;32.10;44.60
66271;DHT22;53063;39.614;8.814;2022-07-23T07:37:32;32.00;45.00
66271;DHT22;53063;39.614;8.814;2022-07-23T07:39:58;31.90;46.60
66271;DHT22;53063;39.614;8.814;2022-07-23T07:42:23;32.10;47.20
66271;DHT22;53063;39.614;8.814;2022-07-23T07:44:49;32.10;47.20
66271;DHT22;53063;39.614;8.814;2022-07-23T07:47:15;32.40;46.70
66271;DHT22;53063;39.614;8.814;2022-07-23T07:49:42;32.30;44.10
66271;DHT22;53063;39.614;8.814;2022-07-23T07:52:08;32.40;45.70
66271;DHT22;53063;39.614;8.814;2022-07-23T07:54:34;33.20;44.10
66271;DHT22;53063;39.614;8.814;2022-07-23T07:57:01;33.20;42.90
66271;DHT22;53063;39.614;8.814;2022-07-23T07:59:26;32.70;43.20
66271;DHT22;53063;39.614;8.814;2022-07-23T08:01:52;32.80;44.40
66271;DHT22;53063;39.614;8.814;2022-07-23T08:04:18;32.90;44.00
66271;DHT22;53063;39.614;8.814;2022-07-23T08:06:44;33.10;43.50
66271;DHT22;53063;39.614;8.814;2022-07-23T08:09:10;33.30;40.80
66271;DHT22;53063;39.614;8.814;2022-07-23T08:11:36;33.20;41.60
66271;DHT22;53063;39.614;8.814;2022-07-23T08:14:02;32.90;40.10
66271;DHT22;53063;39.614;8.814;2022-07-23T08:16:28;33.20;41.10
66271;DHT22;53063;39.614;8.814;2022-07-23T08:18:54;34.10;40.30
66271;DHT22;53063;39.614;8.814;2022-07-23T08:21:20;33.80;39.30
66271;DHT22;53063;39.614;8.814;2022-07-23T08:23:46;33.60;41.30
66271;DHT22;53063;39.614;8.814;2022-07-23T08:26:12;33.90;40.00
66271;DHT22;53063;39.614;8.814;2022-07-23T08:28:38;33.50;37.30
66271;DHT22;53063;39.614;8.814;2022-07-23T08:31:04;33.90;39.20
66271;DHT22;53063;39.614;8.814;2022-07-23T08:33:31;34.10;38.60
66271;DHT22;53063;39.614;8.814;2022-07-23T08:35:58;34.10;38.50
66271;DHT22;53063;39.614;8.814;2022-07-23T08:38:24;34.00;38.40
66271;DHT22;53063;39.614;8.814;2022-07-23T08:40:53;34.80;37.00
66271;DHT22;53063;39.614;8.814;2022-07-23T08:43:24;35.40;36.50
66271;DHT22;53063;39.614;8.814;2022-07-23T08:45:52;35.30;36.50
66271;DHT22;53063;39.614;8.814;2022-07-23T08:48:23;34.90;33.70
66271;DHT22;53063;39.614;8.814;2022-07-23T08:50:51;34.70;34.00
66271;DHT22;53063;39.614;8.814;2022-07-23T08:53:18;34.80;33.10
66271;DHT22;53063;39.614;8.814;2022-07-23T08:55:50;35.20;35.40
66271;DHT22;53063;39.614;8.814;2022-07-23T08:58:17;35.10;34.50
66271;DHT22;53063;39.614;8.814;2022-07-23T09:00:44;35.80;32.70
66271;DHT22;53063;39.614;8.814;2022-07-23T09:03:31;35.60;32.80
66271;DHT22;53063;39.614;8.814;2022-07-23T09:05:58;35.40;32.00
66271;DHT22;53063;39.614;8.814;2022-07-23T09:08:26;35.10;31.40
66271;DHT22;53063;39.614;8.814;2022-07-23T09:11:01;35.80;32.10
66271;DHT22;53063;39.614;8.814;2022-07-23T09:18:38;36.00;31.80
66271;DHT22;53063;39.614;8.814;2022-07-23T09:21:19;36.10;32.10
66271;DHT22;53063;39.614;8.814;2022-07-23T09:23:47;35.80;31.10
66271;DHT22;53063;39.614;8.814;2022-07-23T09:29:00;36.60;30.50
66271;DHT22;53063;39.614;8.814;2022-07-23T09:31:32;36.50;30.30
66271;DHT22;53063;39.614;8.814;2022-07-23T09:34:48;36.10;29.40
66271;DHT22;53063;39.614;8.814;2022-07-23T09:36:58;37.00;30.10
66271;DHT22;53063;39.614;8.814;2022-07-23T09:39:33;37.20;29.70
66271;DHT22;53063;39.614;8.814;2022-07-23T09:44:50;36.90;28.50
66271;DHT22;53063;39.614;8.814;2022-07-23T09:47:17;36.80;29.50
66271;DHT22;53063;39.614;8.814;2022-07-23T09:52:37;36.70;29.60
66271;DHT22;53063;39.614;8.814;2022-07-23T09:55:08;37.20;29.70
66271;DHT22;53063;39.614;8.814;2022-07-23T09:57:34;37.50;29.30
66271;DHT22;53063;39.614;8.814;2022-07-23T10:00:04;37.60;29.30
66271;DHT22;53063;39.614;8.814;2022-07-23T10:02:32;36.50;28.70
66271;DHT22;53063;39.614;8.814;2022-07-23T10:05:17;37.30;29.80
66271;DHT22;53063;39.614;8.814;2022-07-23T10:08:07;37.60;30.10
66271;DHT22;53063;39.614;8.814;2022-07-23T10:10:55;37.70;30.30
66271;DHT22;53063;39.614;8.814;2022-07-23T10:14:00;38.20;29.50
66271;DHT22;53063;39.614;8.814;2022-07-23T10:16:52;38.30;29.00
66271;DHT22;53063;39.614;8.814;2022-07-23T10:19:18;38.20;30.00
66271;DHT22;53063;39.614;8.814;2022-07-23T10:21:50;38.20;29.30
66271;DHT22;53063;39.614;8.814;2022-07-23T10:35:18;38.80;31.20
66271;DHT22;53063;39.614;8.814;2022-07-23T10:37:51;39.00;31.80
66271;DHT22;53063;39.614;8.814;2022-07-23T10:40:22;39.30;31.00
66271;DHT22;53063;39.614;8.814;2022-07-23T10:42:51;39.00;30.90
66271;DHT22;53063;39.614;8.814;2022-07-23T10:45:22;38.90;30.90
66271;DHT22;53063;39.614;8.814;2022-07-23T10:47:49;38.90;30.20
66271;DHT22;53063;39.614;8.814;2022-07-23T10:50:25;39.00;29.10
66271;DHT22;53063;39.614;8.814;2022-07-23T10:53:16;38.70;28.80
66271;DHT22;53063;39.614;8.814;2022-07-23T10:55:46;38.90;26.60
66271;DHT22;53063;39.614;8.814;2022-07-23T10:58:21;38.30;28.40
66271;DHT22;53063;39.614;8.814;2022-07-23T11:00:48;38.70;27.90
66271;DHT22;53063;39.614;8.814;2022-07-23T11:05:55;39.40;28.00
66271;DHT22;53063;39.614;8.814;2022-07-23T11:08:21;39.70;27.10
66271;DHT22;53063;39.614;8.814;2022-07-23T11:11:16;39.80;27.70
66271;DHT22;53063;39.614;8.814;2022-07-23T11:13:45;40.00;27.40
66271;DHT22;53063;39.614;8.814;2022-07-23T11:16:17;40.10;27.40
66271;DHT22;53063;39.614;8.814;2022-07-23T11:26:46;40.10;27.00
66271;DHT22;53063;39.614;8.814;2022-07-23T11:32:19;39.60;27.20
66271;DHT22;53063;39.614;8.814;2022-07-23T11:34:49;39.90;27.70
66271;DHT22;53063;39.614;8.814;2022-07-23T11:37:37;40.00;27.10
66271;DHT22;53063;39.614;8.814;2022-07-23T11:40:10;40.10;27.20
66271;DHT22;53063;39.614;8.814;2022-07-23T11:42:38;40.50;26.60
66271;DHT22;53063;39.614;8.814;2022-07-23T11:45:08;40.60;26.90
66271;DHT22;53063;39.614;8.814;2022-07-23T11:47:35;40.60;26.30
66271;DHT22;53063;39.614;8.814;2022-07-23T11:50:03;40.60;26.40
66271;DHT22;53063;39.614;8.814;2022-07-23T11:52:30;40.60;25.70
66271;DHT22;53063;39.614;8.814;2022-07-23T11:55:02;40.50;27.20
66271;DHT22;53063;39.614;8.814;2022-07-23T11:57:30;40.60;26.20
66271;DHT22;53063;39.614;8.814;2022-07-23T12:00:06;41.00;25.90
66271;DHT22;53063;39.614;8.814;2022-07-23T12:02:47;40.80;25.90
66271;DHT22;53063;39.614;8.814;2022-07-23T12:05:25;40.60;26.30
66271;DHT22;53063;39.614;8.814;2022-07-23T12:07:52;40.70;25.10
66271;DHT22;53063;39.614;8.814;2022-07-23T12:12:57;40.90;25.00
66271;DHT22;53063;39.614;8.814;2022-07-23T12:15:25;41.00;25.10
66271;DHT22;53063;39.614;8.814;2022-07-23T12:17:52;41.00;25.50
66271;DHT22;53063;39.614;8.814;2022-07-23T12:20:24;41.40;24.20
66271;DHT22;53063;39.614;8.814;2022-07-23T12:22:53;41.30;24.00
66271;DHT22;53063;39.614;8.814;2022-07-23T12:25:23;41.10;24.80
66271;DHT22;53063;39.614;8.814;2022-07-23T12:30:30;41.00;25.00
66271;DHT22;53063;39.614;8.814;2022-07-23T12:32:58;41.10;24.70
66271;DHT22;53063;39.614;8.814;2022-07-23T12:35:43;41.00;24.40
66271;DHT22;53063;39.614;8.814;2022-07-23T12:38:15;40.70;24.90
66271;DHT22;53063;39.614;8.814;2022-07-23T12:43:19;40.70;24.20
66271;DHT22;53063;39.614;8.814;2022-07-23T12:45:56;40.60;25.50
66271;DHT22;53063;39.614;8.814;2022-07-23T12:48:39;40.90;25.40
66271;DHT22;53063;39.614;8.814;2022-07-23T12:51:19;40.80;25.90
66271;DHT22;53063;39.614;8.814;2022-07-23T12:53:49;40.50;25.70
66271;DHT22;53063;39.614;8.814;2022-07-23T12:56:16;40.20;25.30
66271;DHT22;53063;39.614;8.814;2022-07-23T12:58:48;40.30;25.30
66271;DHT22;53063;39.614;8.814;2022-07-23T13:06:36;40.20;24.40
66271;DHT22;53063;39.614;8.814;2022-07-23T13:09:05;39.80;24.50
66271;DHT22;53063;39.614;8.814;2022-07-23T13:11:34;39.80;25.00
66271;DHT22;53063;39.614;8.814;2022-07-23T13:14:01;39.60;25.50
66271;DHT22;53063;39.614;8.814;2022-07-23T13:16:28;39.50;25.40
66271;DHT22;53063;39.614;8.814;2022-07-23T13:18:54;39.60;26.00
66271;DHT22;53063;39.614;8.814;2022-07-23T13:21:22;39.40;26.40
66271;DHT22;53063;39.614;8.814;2022-07-23T13:23:49;39.30;26.20
66271;DHT22;53063;39.614;8.814;2022-07-23T13:26:15;39.20;26.30
66271;DHT22;53063;39.614;8.814;2022-07-23T13:28:41;39.10;25.50
66271;DHT22;53063;39.614;8.814;2022-07-23T13:31:07;39.10;25.50
66271;DHT22;53063;39.614;8.814;2022-07-23T13:33:33;38.90;25.60
66271;DHT22;53063;39.614;8.814;2022-07-23T13:35:59;39.00;26.10
66271;DHT22;53063;39.614;8.814;2022-07-23T13:38:25;38.90;25.80
66271;DHT22;53063;39.614;8.814;2022-07-23T13:40:52;38.70;26.80
66271;DHT22;53063;39.614;8.814;2022-07-23T13:43:22;38.80;26.40
66271;DHT22;53063;39.614;8.814;2022-07-23T13:45:49;38.60;26.00
66271;DHT22;53063;39.614;8.814;2022-07-23T13:48:17;38.50;26.60
66271;DHT22;53063;39.614;8.814;2022-07-23T13:50:45;38.60;26.50
66271;DHT22;53063;39.614;8.814;2022-07-23T13:53:17;38.60;26.60
66271;DHT22;53063;39.614;8.814;2022-07-23T13:55:43;38.50;26.90
66271;DHT22;53063;39.614;8.814;2022-07-23T13:58:10;38.20;26.20
66271;DHT22;53063;39.614;8.814;2022-07-23T14:00:42;38.20;27.90
66271;DHT22;53063;39.614;8.814;2022-07-23T14:03:09;38.10;27.90
66271;DHT22;53063;39.614;8.814;2022-07-23T14:05:35;37.80;27.50
66271;DHT22;53063;39.614;8.814;2022-07-23T14:08:02;37.80;27.50
66271;DHT22;53063;39.614;8.814;2022-07-23T14:10:28;37.70;28.00
66271;DHT22;53063;39.614;8.814;2022-07-23T14:12:54;37.80;27.80
66271;DHT22;53063;39.614;8.814;2022-07-23T14:15:22;37.60;28.10
66271;DHT22;53063;39.614;8.814;2022-07-23T14:17:49;37.60;27.00
66271;DHT22;53063;39.614;8.814;2022-07-23T14:20:15;37.50;27.90
66271;DHT22;53063;39.614;8.814;2022-07-23T14:22:42;37.50;28.10
66271;DHT22;53063;39.614;8.814;2022-07-23T14:25:10;37.30;27.90
66271;DHT22;53063;39.614;8.814;2022-07-23T14:27:36;37.50;28.10
66271;DHT22;53063;39.614;8.814;2022-07-23T14:30:04;37.60;27.90
66271;DHT22;53063;39.614;8.814;2022-07-23T14:32:30;37.50;27.90
66271;DHT22;53063;39.614;8.814;2022-07-23T14:34:56;37.40;27.60
66271;DHT22;53063;39.614;8.814;2022-07-23T14:37:22;37.20;27.20
66271;DHT22;53063;39.614;8.814;2022-07-23T14:39:48;37.20;27.30
66271;DHT22;53063;39.614;8.814;2022-07-23T14:42:14;37.10;27.90
66271;DHT22;53063;39.614;8.814;2022-07-23T14:44:40;37.10;28.10
66271;DHT22;53063;39.614;8.814;2022-07-23T14:47:07;36.90;28.20
66271;DHT22;53063;39.614;8.814;2022-07-23T14:49:34;36.80;28.10
66271;DHT22;53063;39.614;8.814;2022-07-23T14:52:00;36.80;28.20
66271;DHT22;53063;39.614;8.814;2022-07-23T14:54:26;36.60;28.90
66271;DHT22;53063;39.614;8.814;2022-07-23T14:56:54;36.60;29.50
66271;DHT22;53063;39.614;8.814;2022-07-23T14:59:20;36.40;28.70
66271;DHT22;53063;39.614;8.814;2022-07-23T15:01:46;36.60;29.10
66271;DHT22;53063;39.614;8.814;2022-07-23T15:04:12;36.50;29.00
66271;DHT22;53063;39.614;8.814;2022-07-23T15:06:38;36.50;29.30
66271;DHT22;53063;39.614;8.814;2022-07-23T15:09:05;36.50;28.20
66271;DHT22;53063;39.614;8.814;2022-07-23T15:11:31;36.30;28.30
66271;DHT22;53063;39.614;8.814;2022-07-23T15:14:00;36.20;29.90
66271;DHT22;53063;39.614;8.814;2022-07-23T15:16:27;36.10;29.00
66271;DHT22;53063;39.614;8.814;2022-07-23T15:18:53;36.00;29.60
66271;DHT22;53063;39.614;8.814;2022-07-23T15:21:20;35.90;30.90
66271;DHT22;53063;39.614;8.814;2022-07-23T15:23:46;36.00;30.00
66271;DHT22;53063;39.614;8.814;2022-07-23T15:26:12;35.90;29.70
66271;DHT22;53063;39.614;8.814;2022-07-23T15:28:40;35.80;30.20
66271;DHT22;53063;39.614;8.814;2022-07-23T15:31:06;35.90;29.50
66271;DHT22;53063;39.614;8.814;2022-07-23T15:33:32;35.90;28.50
66271;DHT22;53063;39.614;8.814;2022-07-23T15:35:58;35.80;29.20
66271;DHT22;53063;39.614;8.814;2022-07-23T15:38:26;35.70;29.20
66271;DHT22;53063;39.614;8.814;2022-07-23T15:40:53;35.50;29.50
66271;DHT22;53063;39.614;8.814;2022-07-23T15:43:20;35.50;30.20
66271;DHT22;53063;39.614;8.814;2022-07-23T15:45:47;35.50;30.50
66271;DHT22;53063;39.614;8.814;2022-07-23T15:48:13;35.60;30.20
66271;DHT22;53063;39.614;8.814;2022-07-23T15:50:39;35.50;31.30
66271;DHT22;53063;39.614;8.814;2022-07-23T15:53:06;35.40;31.60
66271;DHT22;53063;39.614;8.814;2022-07-23T15:55:31;35.40;30.90
66271;DHT22;53063;39.614;8.814;2022-07-23T15:57:58;35.30;30.30
66271;DHT22;53063;39.614;8.814;2022-07-23T16:00:24;35.20;30.30
66271;DHT22;53063;39.614;8.814;2022-07-23T16:02:50;35.10;31.20
66271;DHT22;53063;39.614;8.814;2022-07-23T16:05:16;35.10;30.50
66271;DHT22;53063;39.614;8.814;2022-07-23T16:07:57;35.10;31.40
66271;DHT22;53063;39.614;8.814;2022-07-23T16:10:24;35.10;31.00
66271;DHT22;53063;39.614;8.814;2022-07-23T16:12:49;35.20;31.30
66271;DHT22;53063;39.614;8.814;2022-07-23T16:15:16;35.10;29.00
66271;DHT22;53063;39.614;8.814;2022-07-23T16:17:42;34.80;31.20
66271;DHT22;53063;39.614;8.814;2022-07-23T16:20:08;34.80;31.40
66271;DHT22;53063;39.614;8.814;2022-07-23T16:22:35;34.80;30.50
66271;DHT22;53063;39.614;8.814;2022-07-23T16:25:02;34.80;31.30
66271;DHT22;53063;39.614;8.814;2022-07-23T16:27:30;34.70;31.20